Time;durP1;ratioP1;P1;durP2;ratioP2;P2;SDS_P1;SDS_P2;PMS_P1;PMS_P2;Temp;Humidity;BMP_temperature;BMP_pressure;BME280_temperature;BME280_humidity;BME280_pressure;Samples;Min_cycle;Max_cycle;Signal;HPM_P1;HPM_P2
2022/12/26 00:04:29;;;;;;;250.85;50.15;;;;;;;7.32;100.00;100875.72;10568705;28;20498;-87
2022/12/26 00:09:31;;;;;;;352.77;57.42;;;;;;;7.33;100.00;100858.19;10568593;27;20039;-87
2022/12/26 00:14:32;;;;;;;307.02;52.28;;;;;;;7.36;100.00;100848.66;10568298;27;20564;-88
2022/12/26 00:19:32;;;;;;;313.27;48.72;;;;;;;7.35;100.00;100850.56;10568139;27;20043;-88
2022/12/26 00:24:33;;;;;;;320.98;55.67;;;;;;;7.26;100.00;100847.34;10550702;27;20035;-88
2022/12/26 00:29:33;;;;;;;247.57;50.88;;;;;;;7.26;100.00;100847.34;10551506;27;20430;-88
2022/12/26 00:34:34;;;;;;;278.02;48.97;;;;;;;7.33;100.00;100863.66;10542218;27;20081;-89
2022/12/26 00:39:34;;;;;;;266.63;47.28;;;;;;;7.36;100.00;100855.00;10550659;27;20039;-89
2022/12/26 00:44:35;;;;;;;329.30;53.60;;;;;;;7.37;100.00;100853.91;10586184;27;20043;-89
2022/12/26 00:49:35;;;;;;;267.38;52.20;;;;;;;7.38;100.00;100847.38;10583949;27;20469;-75
2022/12/26 00:54:36;;;;;;;219.18;47.92;;;;;;;7.39;100.00;100851.78;10567506;27;22226;-88
2022/12/26 00:59:36;;;;;;;239.43;47.13;;;;;;;7.39;100.00;100843.56;10549229;27;20047;-88
2022/12/26 01:04:37;;;;;;;234.60;46.25;;;;;;;7.39;100.00;100857.25;10565472;27;20047;-88
2022/12/26 01:09:37;;;;;;;217.60;49.10;;;;;;;7.38;100.00;100865.69;10563737;28;20544;-88
2022/12/26 01:14:38;;;;;;;294.63;56.20;;;;;;;7.39;100.00;100862.75;10536172;28;20066;-88
2022/12/26 01:19:38;;;;;;;273.02;51.03;;;;;;;7.32;100.00;100848.31;10550552;27;20039;-88
2022/12/26 01:24:39;;;;;;;218.95;48.72;;;;;;;6.88;100.00;100781.97;10569174;27;20044;-85
2022/12/26 01:29:39;;;;;;;241.93;54.03;;;;;;;7.37;100.00;100864.88;10545898;28;20117;-86
2022/12/26 01:34:40;;;;;;;210.77;49.63;;;;;;;7.36;100.00;100868.69;10549312;27;20043;-88
2022/12/26 01:39:41;;;;;;;177.93;44.95;;;;;;;7.30;100.00;100861.41;10581879;27;20077;-87
2022/12/26 01:44:53;;;;;;;162.95;47.15;;;;;;;7.36;100.00;100882.41;10547328;27;20043;-87
2022/12/26 01:49:54;;;;;;;173.88;43.25;;;;;;;7.38;100.00;100877.50;10565459;27;20099;-88
2022/12/26 01:54:54;;;;;;;158.00;44.50;;;;;;;7.37;100.00;100869.53;10571523;27;20036;-88
2022/12/26 01:59:55;;;;;;;161.05;45.40;;;;;;;7.37;100.00;100875.84;10539190;28;20242;-89
2022/12/26 02:10:19;;;;;;;142.80;41.35;;;;;;;7.39;100.00;100879.16;10558109;28;20074;-85
2022/12/26 02:15:19;;;;;;;155.63;42.88;;;;;;;7.42;100.00;100881.47;10560607;27;20032;-86
2022/12/26 02:20:25;;;;;;;143.70;41.13;;;;;;;7.37;100.00;100872.25;10580617;27;20092;-84
2022/12/26 02:26:06;;;;;;;115.43;38.92;;;;;;;7.35;100.00;100877.97;10546548;27;20050;-85
2022/12/26 02:31:31;;;;;;;137.02;40.88;;;;;;;7.43;100.00;100877.63;10543655;27;20023;-87
2022/12/26 02:37:00;;;;;;;111.20;40.40;;;;;;;7.46;100.00;100879.94;10563310;28;20096;-86
2022/12/26 02:42:03;;;;;;;104.45;39.20;;;;;;;7.47;100.00;100867.88;10548402;28;20040;-85
2022/12/26 02:47:04;;;;;;;96.00;36.75;;;;;;;7.47;100.00;100867.06;10563741;27;20039;-83
2022/12/26 03:14:26;;;;;;;83.22;33.28;;;;;;;7.44;100.00;100851.94;10557492;27;20051;-83
2022/12/26 03:19:27;;;;;;;65.57;31.08;;;;;;;7.47;100.00;100840.50;10536816;28;20057;-86
2022/12/26 03:26:38;;;;;;;76.50;32.42;;;;;;;7.51;100.00;100853.72;10524895;28;20074;-83
2022/12/26 03:35:11;;;;;;;72.05;32.03;;;;;;;7.52;100.00;100845.25;10564760;28;20032;-85
2022/12/26 04:19:23;;;;;;;98.23;43.97;;;;;;;7.63;100.00;100830.75;10559339;27;20039;-87
2022/12/26 04:46:06;;;;;;;112.13;47.90;;;;;;;7.46;100.00;100797.75;10584872;27;20031;-88
2022/12/26 04:51:07;;;;;;;114.22;48.80;;;;;;;7.79;100.00;100834.72;10500902;28;20044;-87
2022/12/26 04:56:07;;;;;;;120.25;51.20;;;;;;;7.80;100.00;100838.28;10541113;28;20036;-87
2022/12/26 05:11:46;;;;;;;120.40;54.25;;;;;;;7.85;100.00;100822.81;10567776;27;20042;-87
2022/12/26 05:38:17;;;;;;;90.88;48.88;;;;;;;7.78;100.00;100837.69;10572435;28;20039;-85
2022/12/26 05:43:18;;;;;;;88.63;51.42;;;;;;;7.77;100.00;100842.34;10541853;28;20476;-86
2022/12/26 05:48:19;;;;;;;82.32;47.38;;;;;;;7.74;100.00;100840.06;10560985;27;20115;-86
2022/12/26 05:53:19;;;;;;;72.82;45.80;;;;;;;7.76;100.00;100835.19;10547297;27;20040;-85
2022/12/26 05:58:20;;;;;;;70.07;44.45;;;;;;;7.77;100.00;100839.59;10581053;28;20061;-86
2022/12/26 06:03:20;;;;;;;65.93;40.88;;;;;;;7.70;100.00;100844.34;10555959;27;20035;-88
2022/12/26 06:08:21;;;;;;;68.85;44.10;;;;;;;7.69;100.00;100848.19;10521112;28;20040;-86
2022/12/26 06:13:21;;;;;;;63.28;41.65;;;;;;;7.66;100.00;100840.41;10551276;27;20036;-86
2022/12/26 06:18:21;;;;;;;67.57;42.20;;;;;;;7.70;100.00;100836.13;10559143;27;20052;-85
2022/12/26 06:23:22;;;;;;;63.58;42.28;;;;;;;7.76;100.00;100839.84;10558100;27;20556;-84
2022/12/26 06:28:23;;;;;;;56.72;38.95;;;;;;;7.73;100.00;100835.66;10580951;27;20511;-84
2022/12/26 06:33:23;;;;;;;62.67;41.85;;;;;;;7.73;100.00;100832.94;10509326;28;20512;-88
2022/12/26 06:38:23;;;;;;;52.92;38.78;;;;;;;7.77;100.00;100846.97;10567411;28;20061;-87
2022/12/26 06:43:24;;;;;;;51.80;37.35;;;;;;;7.77;100.00;100839.59;10559694;28;20349;-83
2022/12/26 06:48:24;;;;;;;49.05;36.63;;;;;;;7.78;100.00;100829.47;10580106;28;20049;-83
2022/12/26 06:53:25;;;;;;;55.25;37.85;;;;;;;7.77;100.00;100827.78;10579983;28;20028;-85
2022/12/26 06:58:25;;;;;;;45.42;35.80;;;;;;;7.79;100.00;100822.91;10556257;28;20036;-85
2022/12/26 07:03:27;;;;;;;48.08;37.05;;;;;;;7.82;100.00;100819.72;10567695;27;20069;-84
2022/12/26 07:08:27;;;;;;;43.00;34.33;;;;;;;7.81;100.00;100816.13;10589283;27;20055;-86
2022/12/26 07:13:28;;;;;;;43.47;35.40;;;;;;;7.82;100.00;100806.81;10587187;27;20054;-84
2022/12/26 07:18:28;;;;;;;44.38;34.97;;;;;;;7.86;100.00;100797.06;10571804;27;20048;-84
2022/12/26 07:23:29;;;;;;;47.40;34.90;;;;;;;7.89;100.00;100807.53;10547387;27;20032;-85
2022/12/26 07:28:30;;;;;;;45.97;36.35;;;;;;;7.90;100.00;100808.38;10562269;27;20134;-83
2022/12/26 07:33:30;;;;;;;45.15;35.10;;;;;;;7.89;100.00;100793.81;10589012;27;20036;-83
2022/12/26 07:38:31;;;;;;;41.22;33.92;;;;;;;7.87;100.00;100785.03;10586496;27;20131;-85
2022/12/26 07:43:31;;;;;;;39.92;34.83;;;;;;;7.97;100.00;100794.56;10586315;27;20043;-86
2022/12/26 07:48:32;;;;;;;35.22;31.40;;;;;;;7.98;100.00;100796.22;10552039;28;20035;-83
2022/12/26 07:53:32;;;;;;;36.83;33.17;;;;;;;8.02;100.00;100789.16;10583576;27;20039;-86
2022/12/26 07:58:33;;;;;;;33.15;29.95;;;;;;;8.02;100.00;100787.28;10546222;28;20048;-87
2022/12/26 08:03:33;;;;;;;33.08;29.40;;;;;;;8.11;100.00;100786.94;10580773;27;20388;-82
2022/12/26 08:08:34;;;;;;;30.38;27.48;;;;;;;8.12;100.00;100789.41;10585307;27;20111;-81
2022/12/26 08:13:34;;;;;;;31.42;28.30;;;;;;;8.18;100.00;100766.50;10565850;27;20036;-86
2022/12/26 08:18:35;;;;;;;30.80;27.88;;;;;;;8.14;100.00;100754.34;10543374;28;20032;-84
2022/12/26 08:23:35;;;;;;;29.42;26.38;;;;;;;8.21;100.00;100749.59;10556052;28;20058;-83
2022/12/26 08:28:36;;;;;;;28.92;25.92;;;;;;;8.25;100.00;100750.78;10579281;27;20043;-85
2022/12/26 08:33:37;;;;;;;30.25;27.13;;;;;;;8.25;100.00;100755.44;10543945;28;20036;-84
2022/12/26 08:38:38;;;;;;;30.10;26.95;;;;;;;8.20;100.00;100764.34;10541748;28;20053;-86
2022/12/26 08:43:38;;;;;;;28.95;25.90;;;;;;;8.23;100.00;100755.66;10553922;27;20051;-86
2022/12/26 08:48:39;;;;;;;32.22;29.02;;;;;;;8.16;100.00;100745.88;10580327;27;20051;-89
2022/12/26 08:53:39;;;;;;;31.92;27.00;;;;;;;8.24;100.00;100764.72;10525969;28;20032;-88
2022/12/26 08:58:40;;;;;;;34.63;27.20;;;;;;;8.25;100.00;100785.59;10581382;28;20078;-84
2022/12/26 09:03:41;;;;;;;31.75;25.50;;;;;;;8.18;100.00;100774.72;10553030;27;20123;-82
2022/12/26 09:08:42;;;;;;;27.05;24.35;;;;;;;8.32;100.00;100769.00;10524693;28;20055;-88
2022/12/26 09:13:42;;;;;;;26.00;23.08;;;;;;;8.36;100.00;100772.94;10524668;28;20032;-88
2022/12/26 09:18:43;;;;;;;25.75;23.10;;;;;;;8.35;100.00;100782.22;10553212;27;20063;-87
2022/12/26 09:23:44;;;;;;;23.83;21.30;;;;;;;8.32;100.00;100749.81;10581361;27;20040;-84
2022/12/26 09:28:45;;;;;;;23.02;20.88;;;;;;;8.37;100.00;100769.09;10566728;27;20032;-87
2022/12/26 09:33:46;;;;;;;24.08;21.58;;;;;;;8.37;100.00;100752.63;10582702;27;20035;-89
2022/12/26 09:38:47;;;;;;;23.27;20.95;;;;;;;8.34;100.00;100759.44;10582206;28;20039;-87
2022/12/26 09:44:09;;;;;;;24.42;22.13;;;;;;;8.31;100.00;100764.56;10581621;27;20376;-88
2022/12/26 09:49:12;;;;;;;26.30;23.85;;;;;;;8.23;100.00;100785.00;10581864;27;20047;-82
2022/12/26 09:54:17;;;;;;;25.00;22.48;;;;;;;8.24;100.00;100792.97;10564294;27;20061;-89
2022/12/26 09:59:18;;;;;;;21.55;19.75;;;;;;;8.27;100.00;100798.00;10547890;27;20040;-85
2022/12/26 10:04:26;;;;;;;18.55;17.05;;;;;;;8.44;100.00;100791.78;10559672;28;20044;-82
2022/12/26 10:09:45;;;;;;;16.27;14.98;;;;;;;8.45;100.00;100783.31;10540476;28;20044;-85
2022/12/26 10:14:45;;;;;;;17.00;15.35;;;;;;;8.54;100.00;100802.97;10536648;27;20564;-88
2022/12/26 10:20:18;;;;;;;19.73;17.15;;;;;;;8.42;100.00;100813.97;10580754;28;20126;-88
2022/12/26 10:25:41;;;;;;;20.05;18.17;;;;;;;8.10;100.00;100791.56;10550080;27;20052;-85
2022/12/26 10:30:42;;;;;;;13.98;12.57;;;;;;;8.11;100.00;100858.22;10536772;28;20028;-86
2022/12/26 10:35:43;;;;;;;13.00;8.88;;;;;;;7.73;100.00;100868.56;10554490;28;20055;-87
2022/12/26 10:40:45;;;;;;;16.95;8.00;;;;;;;7.62;100.00;100883.88;10555291;28;20038;-86
2022/12/26 10:46:03;;;;;;;9.82;5.55;;;;;;;7.46;100.00;100879.06;10546564;28;20048;-79
2022/12/26 10:51:04;;;;;;;14.95;6.50;;;;;;;7.37;100.00;100872.25;10558296;28;20078;-84
2022/12/26 10:56:05;;;;;;;17.92;7.80;;;;;;;7.39;100.00;100895.59;10535126;28;20039;-84
2022/12/26 11:01:28;;;;;;;14.15;6.35;;;;;;;7.41;100.00;100909.91;10538764;28;20542;-85
2022/12/26 11:06:39;;;;;;;12.35;5.70;;;;;;;7.36;100.00;100918.00;10558208;28;20040;-85
2022/12/26 11:11:46;;;;;;;10.13;6.45;;;;;;;7.15;100.00;100940.38;10540342;28;20142;-87
2022/12/26 11:16:46;;;;;;;;;;;;;;;7.08;100.00;100938.56;10541573;28;20047;-85
2022/12/26 11:21:47;;;;;;;11.75;7.43;;;;;;;7.01;100.00;100954.25;10541925;28;19931;-87
2022/12/26 11:26:47;;;;;;;12.15;9.95;;;;;;;6.80;100.00;100973.84;10559113;28;20039;-85
2022/12/26 11:32:02;;;;;;;13.88;11.82;;;;;;;6.74;100.00;101002.09;10557747;28;20032;-87
2022/12/26 11:37:03;;;;;;;14.75;11.43;;;;;;;6.57;100.00;101012.78;10542741;28;20036;-83
2022/12/26 11:42:10;;;;;;;10.85;9.90;;;;;;;6.41;100.00;101016.94;10557059;28;20436;-85
2022/12/26 11:47:15;;;;;;;15.88;7.55;;;;;;;6.40;100.00;101009.78;10569877;28;20035;-81
2022/12/26 11:52:36;;;;;;;8.32;6.55;;;;;;;6.50;100.00;101017.50;10532784;27;20036;-87
2022/12/26 11:57:36;;;;;;;8.25;5.18;;;;;;;6.42;100.00;101033.13;10558039;28;20481;-85
2022/12/26 12:02:37;;;;;;;11.45;6.13;;;;;;;6.41;100.00;101017.78;10538624;27;20032;-85
2022/12/26 12:07:59;;;;;;;18.08;5.50;;;;;;;6.66;100.00;101042.38;10565944;27;20074;-86
2022/12/26 12:13:47;;;;;;;10.18;4.70;;;;;;;6.61;100.00;101046.84;10581696;28;20088;-86
2022/12/26 12:19:09;;;;;;;8.48;5.32;;;;;;;6.47;100.00;101062.56;10581477;28;20410;-88
2022/12/26 12:24:38;;;;;;;6.32;5.63;;;;;;;6.25;100.00;101076.56;10573402;27;20042;-86
2022/12/26 12:29:54;;;;;;;6.22;5.07;;;;;;;6.28;100.00;101077.19;10571117;27;20042;-89
2022/12/26 12:35:36;;;;;;;8.70;5.20;;;;;;;6.39;100.00;101073.75;10584397;27;20081;-85
2022/12/26 12:41:01;;;;;;;10.80;5.55;;;;;;;6.42;100.00;101086.97;10584311;27;20054;-86
2022/12/26 12:46:27;;;;;;;13.43;5.10;;;;;;;6.35;100.00;101075.28;10525170;27;20039;-85
2022/12/26 12:51:45;;;;;;;19.45;4.50;;;;;;;6.50;100.00;101099.56;10543162;27;20077;-88
2022/12/26 12:56:52;;;;;;;16.30;4.53;;;;;;;6.46;100.00;101104.63;10530301;28;20573;-88
2022/12/26 13:01:55;;;;;;;15.82;3.70;;;;;;;6.41;100.00;101112.66;10543978;27;20166;-87
2022/12/26 13:06:59;;;;;;;14.50;3.63;;;;;;;6.29;100.00;101103.50;10556925;28;20031;-84
2022/12/26 13:12:13;;;;;;;12.70;2.63;;;;;;;6.41;100.00;101112.66;10527732;27;20040;-88
2022/12/26 13:17:17;;;;;;;11.80;2.65;;;;;;;6.53;100.00;101121.84;10513526;27;20080;-88
2022/12/26 13:22:26;;;;;;;13.80;4.00;;;;;;;6.97;100.00;101136.44;10514950;28;20112;-89
2022/12/26 13:27:31;;;;;;;15.27;3.33;;;;;;;7.15;100.00;101140.25;10562030;27;20043;-88
2022/12/26 13:32:31;;;;;;;14.40;3.78;;;;;;;7.07;100.00;101155.09;10532849;27;20043;-87
2022/12/26 13:37:38;;;;;;;6.80;3.45;;;;;;;6.72;100.00;101158.31;10544531;27;20372;-87
2022/12/26 13:48:14;;;;;;;11.57;4.88;;;;;;;6.41;100.00;101181.88;10557830;27;20350;-83
2022/12/26 13:53:24;;;;;;;10.77;4.30;;;;;;;6.29;100.00;101185.53;10517084;28;20194;-82
2022/12/26 13:58:51;;;;;;;10.60;3.80;;;;;;;6.22;100.00;101182.81;10528408;27;20492;-86
2022/12/26 14:04:10;;;;;;;;;;;;;;;6.20;100.00;101191.25;10527531;28;20042;-85
2022/12/26 14:09:31;;;;;;;14.60;5.10;;;;;;;6.09;100.00;101185.59;10525809;28;19931;-87
2022/12/26 14:15:12;;;;;;;16.58;4.55;;;;;;;6.05;100.00;101190.66;10530116;28;20101;-85
2022/12/26 14:20:37;;;;;;;14.55;4.47;;;;;;;5.98;100.00;101200.78;10538530;27;20035;-84
2022/12/26 14:25:44;;;;;;;9.18;4.32;;;;;;;5.67;100.00;101207.78;10552742;28;20124;-81
2022/12/26 14:30:56;;;;;;;13.95;5.40;;;;;;;5.53;100.00;101220.63;10531163;27;20040;-83
2022/12/26 14:36:27;;;;;;;15.35;4.53;;;;;;;5.46;100.00;101231.56;10537306;27;20052;-83
2022/12/26 14:46:46;;;;;;;10.85;4.60;;;;;;;5.29;100.00;101246.69;10542435;28;20066;-82
2022/12/26 14:51:47;;;;;;;12.75;4.05;;;;;;;5.12;100.00;101261.81;10565324;27;20031;-83
2022/12/26 14:56:49;;;;;;;10.18;3.83;;;;;;;5.05;100.00;101279.00;10520423;28;20365;-84
2022/12/26 15:02:16;;;;;;;21.55;4.22;;;;;;;4.95;100.00;101296.84;10556164;28;20052;-83
2022/12/26 15:07:28;;;;;;;14.68;4.30;;;;;;;4.90;100.00;101302.06;10529496;28;20048;-84
2022/12/26 15:12:34;;;;;;;21.40;3.85;;;;;;;4.84;100.00;101301.84;10549576;28;20123;-84
2022/12/26 15:18:02;;;;;;;17.85;4.20;;;;;;;4.71;100.00;101314.59;10556484;28;20043;-84
2022/12/26 15:23:49;;;;;;;11.07;3.33;;;;;;;4.53;100.00;101307.84;10582583;27;20495;-83
2022/12/26 15:29:16;;;;;;;13.25;3.35;;;;;;;4.44;100.00;101319.94;10509893;28;20052;-84
2022/12/26 15:34:35;;;;;;;18.70;3.20;;;;;;;4.45;100.00;101318.91;10533686;28;20057;-84
2022/12/26 15:39:45;;;;;;;15.15;3.28;;;;;;;4.43;100.00;101329.19;10531453;27;20048;-84
2022/12/26 15:44:53;;;;;;;9.98;2.80;;;;;;;4.43;100.00;101327.28;10548103;28;20499;-81
2022/12/26 15:50:22;;;;;;;11.55;3.67;;;;;;;4.38;100.00;101334.38;10534367;28;20624;-80
2022/12/26 15:55:39;;;;;;;15.88;3.92;;;;;;;4.27;100.00;101351.31;10467674;27;20040;-80
2022/12/26 16:00:52;;;;;;;14.23;3.97;;;;;;;4.07;100.00;101338.41;10494506;28;20047;-79
2022/12/26 16:06:17;;;;;;;16.00;5.88;;;;;;;4.07;100.00;101346.56;10526511;27;20044;-80
2022/12/26 16:11:21;;;;;;;16.75;4.22;;;;;;;4.00;100.00;101351.16;10511237;28;20090;-81
2022/12/26 16:16:26;;;;;;;14.68;5.00;;;;;;;3.98;100.00;101364.13;10550816;28;20039;-80
2022/12/26 16:26:45;;;;;;;13.70;4.32;;;;;;;3.86;100.00;101369.28;10556115;27;20126;-80
2022/12/26 16:31:46;;;;;;;19.13;3.60;;;;;;;3.76;100.00;101357.88;10585865;27;20040;-86
2022/12/26 16:36:48;;;;;;;12.20;2.95;;;;;;;3.84;100.00;101380.38;10541637;27;20043;-80
2022/12/26 16:42:03;;;;;;;9.10;3.72;;;;;;;3.78;100.00;101375.72;10567785;27;20126;-80
2022/12/26 16:47:09;;;;;;;22.80;4.32;;;;;;;3.79;100.00;101371.97;10585063;27;20042;-80
2022/12/26 16:52:36;;;;;;;6.53;3.13;;;;;;;3.69;100.00;101370.63;10567767;27;20024;-79
2022/12/26 16:57:36;;;;;;;12.30;3.15;;;;;;;3.74;100.00;101382.63;10583705;27;20046;-80
2022/12/26 17:02:37;;;;;;;10.80;3.03;;;;;;;3.77;100.00;101393.09;10566223;27;20042;-80
2022/12/26 17:07:38;;;;;;;14.10;3.57;;;;;;;3.75;100.00;101397.91;10583702;27;20040;-80
2022/12/26 17:12:39;;;;;;;9.77;3.22;;;;;;;3.74;100.00;101415.28;10583266;27;20074;-81
2022/12/26 17:17:43;;;;;;;11.70;3.00;;;;;;;3.71;100.00;101407.50;10583196;27;20090;-79
2022/12/26 17:22:44;;;;;;;18.20;3.30;;;;;;;3.71;100.00;101412.94;10598775;27;20120;-79
2022/12/26 17:27:44;;;;;;;14.85;3.28;;;;;;;3.78;100.00;101413.88;10592913;27;20380;-80
2022/12/26 17:32:45;;;;;;;7.53;2.47;;;;;;;3.69;100.00;101415.03;10553206;27;20420;-80
2022/12/26 17:37:46;;;;;;;16.83;3.42;;;;;;;3.61;100.00;101417.88;10585695;27;20120;-79
2022/12/26 17:43:04;;;;;;;17.77;4.15;;;;;;;3.56;100.00;101432.09;10543373;27;20031;-80
2022/12/26 17:48:04;;;;;;;16.35;3.47;;;;;;;3.47;100.00;101433.22;10580373;27;20063;-80
2022/12/26 17:53:31;;;;;;;12.13;4.10;;;;;;;3.51;100.00;101439.97;10580453;27;20483;-78
2022/12/26 17:58:32;;;;;;;12.23;4.10;;;;;;;3.43;100.00;101448.25;10566613;27;20028;-80
2022/12/26 18:03:33;;;;;;;14.05;3.28;;;;;;;3.25;100.00;101440.56;10581266;27;20036;-79
2022/12/26 18:08:35;;;;;;;11.30;4.65;;;;;;;3.15;100.00;101440.00;10581267;27;20036;-79
2022/12/26 18:13:36;;;;;;;16.60;4.28;;;;;;;3.01;100.00;101431.69;10581128;27;20043;-79
2022/12/26 18:18:38;;;;;;;14.13;4.13;;;;;;;2.94;100.00;101443.53;10580599;28;20039;-79
2022/12/26 18:23:39;;;;;;;21.40;4.73;;;;;;;2.91;100.00;101455.59;10581051;27;20036;-79
2022/12/26 18:28:39;;;;;;;10.83;3.97;;;;;;;2.68;100.00;101454.88;10545906;28;20048;-80
2022/12/26 18:33:39;;;;;;;18.30;5.47;;;;;;;2.67;100.00;101474.94;10581119;28;20392;-75
2022/12/26 18:38:40;;;;;;;9.27;3.78;;;;;;;2.62;100.00;101470.06;10580969;28;20477;-79
2022/12/26 18:43:41;;;;;;;12.20;4.22;;;;;;;2.59;100.00;101482.16;10551792;28;20031;-81
2022/12/26 18:48:41;;;;;;;16.70;4.43;;;;;;;2.59;100.00;101484.06;10558828;28;20044;-79
2022/12/26 18:53:41;;;;;;;14.85;3.47;;;;;;;2.59;100.00;101490.31;10579246;28;20403;-81
2022/12/26 18:58:42;;;;;;;14.60;4.27;;;;;;;2.62;100.00;101487.25;10562406;28;20499;-80
2022/12/26 19:03:43;;;;;;;11.77;4.67;;;;;;;2.60;100.00;101474.84;10579555;28;20430;-82
2022/12/26 19:08:43;;;;;;;15.97;4.60;;;;;;;2.60;100.00;101507.47;10562053;28;20048;-80
2022/12/26 19:13:44;;;;;;;11.30;3.93;;;;;;;2.57;100.00;101508.69;10579375;28;20544;-81
2022/12/26 19:18:44;;;;;;;11.43;3.60;;;;;;;2.54;100.00;101524.53;10562365;28;20044;-81
2022/12/26 19:23:45;;;;;;;9.67;4.17;;;;;;;2.40;100.00;101508.03;10596464;28;20032;-78
2022/12/26 19:28:52;;;;;;;12.00;3.63;;;;;;;2.34;100.00;101516.91;10596215;28;20049;-82
2022/12/26 19:33:56;;;;;;;16.03;3.47;;;;;;;2.33;100.00;101536.94;10580373;28;20479;-82
2022/12/26 19:38:56;;;;;;;8.07;4.23;;;;;;;2.33;100.00;101552.41;10596468;28;20035;-80
2022/12/26 19:43:58;;;;;;;9.93;3.30;;;;;;;2.31;100.00;101546.31;10548843;28;20031;-82
2022/12/26 19:48:58;;;;;;;12.63;4.10;;;;;;;2.31;100.00;101540.88;10549393;28;20133;-81
2022/12/26 19:53:59;;;;;;;15.77;3.50;;;;;;;2.46;100.00;101563.53;10560398;28;20038;-82
2022/12/26 19:58:59;;;;;;;11.23;3.42;;;;;;;2.41;100.00;101552.34;10565860;28;20056;-81
2022/12/26 20:04:01;;;;;;;12.83;3.87;;;;;;;2.51;100.00;101561.06;10561467;27;20062;-81
2022/12/26 20:09:04;;;;;;;7.83;3.30;;;;;;;2.61;100.00;101563.53;10568799;27;20609;-81
2022/12/26 20:14:05;;;;;;;18.35;5.38;;;;;;;2.52;100.00;101560.06;10584911;27;20043;-82
2022/12/26 20:19:06;;;;;;;12.67;3.87;;;;;;;2.50;100.00;101577.56;10547096;28;20564;-81
2022/12/26 20:24:08;;;;;;;13.18;3.63;;;;;;;2.41;100.00;101584.94;10585451;27;20094;-81
2022/12/26 20:29:09;;;;;;;10.23;3.30;;;;;;;2.37;100.00;101586.34;10568281;27;20040;-75
2022/12/26 20:34:10;;;;;;;9.48;4.32;;;;;;;2.30;100.00;101571.81;10584479;27;20044;-78
2022/12/26 20:39:15;;;;;;;5.47;3.30;;;;;;;2.37;100.00;101583.63;10567730;27;20032;-80
2022/12/26 20:44:15;;;;;;;11.77;4.07;;;;;;;2.31;100.00;101577.03;10583653;27;20058;-80
2022/12/26 20:49:16;;;;;;;9.68;4.38;;;;;;;2.30;100.00;101574.53;10566508;27;20074;-79
2022/12/26 20:54:16;;;;;;;11.23;4.10;;;;;;;2.29;100.00;101597.28;10567090;27;20043;-79
2022/12/26 20:59:17;;;;;;;7.23;3.60;;;;;;;2.25;100.00;101595.94;10583117;27;20036;-80
2022/12/26 21:04:19;;;;;;;13.02;4.10;;;;;;;2.29;100.00;101602.72;10582890;28;20031;-75
2022/12/26 21:09:19;;;;;;;12.32;4.40;;;;;;;2.19;100.00;101592.94;10564535;27;20044;-73
2022/12/26 21:14:21;;;;;;;12.13;3.90;;;;;;;2.28;100.00;101609.19;10545944;28;20052;-73
2022/12/26 21:19:22;;;;;;;20.57;5.83;;;;;;;2.31;100.00;101600.66;10546889;27;20052;-80
2022/12/26 21:24:28;;;;;;;7.80;3.40;;;;;;;2.28;100.00;101595.59;10581918;28;20111;-79
2022/12/26 21:29:30;;;;;;;11.50;4.40;;;;;;;2.33;100.00;101607.59;10564223;27;20042;-80
2022/12/26 21:34:31;;;;;;;12.55;3.25;;;;;;;2.46;100.00;101615.16;10567565;27;20437;-81
2022/12/26 21:39:32;;;;;;;8.97;2.70;;;;;;;2.52;100.00;101586.38;10582192;27;20104;-81
2022/12/26 21:44:32;;;;;;;7.57;2.50;;;;;;;2.90;100.00;101600.81;10581073;27;20036;-79
2022/12/26 21:49:33;;;;;;;10.68;2.50;;;;;;;3.10;100.00;101605.69;10581516;27;20380;-79
2022/12/26 21:59:56;;;;;;;11.47;3.50;;;;;;;2.69;100.00;101592.50;10581110;27;20052;-77
2022/12/26 22:04:57;;;;;;;8.03;2.63;;;;;;;2.58;100.00;101612.81;10580999;27;20071;-80
2022/12/26 22:09:57;;;;;;;6.85;3.53;;;;;;;2.43;100.00;101629.09;10564358;28;20042;-79
2022/12/26 22:14:58;;;;;;;7.93;3.27;;;;;;;2.33;100.00;101642.09;10580511;27;20468;-78
2022/12/26 22:19:58;;;;;;;6.90;3.13;;;;;;;2.19;100.00;101636.41;10563789;27;20058;-78
2022/12/26 22:24:59;;;;;;;11.47;4.03;;;;;;;2.15;100.00;101645.09;10563944;27;20036;-79
2022/12/26 22:29:59;;;;;;;12.73;3.50;;;;;;;1.69;100.00;101586.13;10561399;27;20036;-78
2022/12/26 22:35:00;;;;;;;7.77;3.27;;;;;;;2.19;100.00;101649.13;10552622;28;20036;-78
2022/12/26 22:40:01;;;;;;;12.57;4.07;;;;;;;2.25;100.00;101653.00;10572095;28;20043;-78
2022/12/26 22:45:01;;;;;;;9.50;3.25;;;;;;;2.27;100.00;101646.34;10545909;28;20039;-79
2022/12/26 22:50:02;;;;;;;10.53;3.43;;;;;;;2.39;100.00;101644.06;10566231;28;20050;-78
2022/12/26 22:55:02;;;;;;;9.17;3.27;;;;;;;2.37;100.00;101643.41;10562609;28;20095;-79
2022/12/26 23:00:04;;;;;;;5.73;2.77;;;;;;;2.35;100.00;101642.75;10578880;28;20032;-78
2022/12/26 23:05:05;;;;;;;8.80;3.13;;;;;;;2.24;100.00;101638.59;10596247;28;20056;-79
2022/12/26 23:10:07;;;;;;;8.53;2.93;;;;;;;2.30;100.00;101643.28;10578935;28;20055;-79
2022/12/26 23:15:13;;;;;;;12.70;2.83;;;;;;;2.28;100.00;101647.22;10549297;28;20051;-79
2022/12/26 23:25:32;;;;;;;11.77;4.10;;;;;;;2.20;100.00;101646.25;10579477;28;20074;-79
2022/12/26 23:30:33;;;;;;;13.10;3.80;;;;;;;2.16;100.00;101658.50;10562350;28;20502;-78
2022/12/26 23:35:33;;;;;;;13.13;3.80;;;;;;;2.12;100.00;101670.75;10596535;28;20881;-79
2022/12/26 23:40:34;;;;;;;8.10;3.30;;;;;;;2.10;100.00;101671.94;10583356;27;20046;-78
2022/12/26 23:45:34;;;;;;;10.63;4.10;;;;;;;2.03;100.00;101669.13;10549650;28;20044;-79
2022/12/26 23:50:35;;;;;;;8.33;3.03;;;;;;;2.05;100.00;101668.91;10544900;27;20036;-78
2022/12/26 23:55:39;;;;;;;9.37;3.33;;;;;;;2.13;100.00;101677.88;10552971;27;20031;-79
